createdAt,value
2023-05-09T00:02:20.831Z,102148.31
2023-05-09T00:04:48.144Z,102151.00
2023-05-09T00:07:15.918Z,102144.19
2023-05-09T00:09:43.177Z,102152.13
2023-05-09T00:12:10.714Z,102149.94
2023-05-09T00:14:38.228Z,102148.63
2023-05-09T00:17:06.974Z,102141.25
2023-05-09T00:19:34.203Z,102154.47
2023-05-09T00:22:01.655Z,102148.56
2023-05-09T00:24:29.108Z,102148.13
2023-05-09T00:26:56.580Z,102145.16
2023-05-09T00:29:24.136Z,102143.75
2023-05-09T00:31:51.619Z,102147.47
2023-05-09T00:34:21.522Z,102142.94
2023-05-09T00:36:48.832Z,102141.91
2023-05-09T00:39:16.113Z,102146.03
2023-05-09T00:41:43.394Z,102136.13
2023-05-09T00:44:10.671Z,102145.81
2023-05-09T00:46:39.026Z,102142.66
2023-05-09T00:49:06.437Z,102137.31
2023-05-09T00:51:36.790Z,102137.09
2023-05-09T00:54:04.047Z,102133.63
2023-05-09T00:56:31.392Z,102132.22
2023-05-09T00:59:00.140Z,102135.19
2023-05-09T01:01:27.473Z,102132.66
2023-05-09T01:03:55.614Z,102131.16
2023-05-09T02:08:42.576Z,102098.50
2023-05-09T02:11:09.886Z,102100.34
2023-05-09T02:13:37.200Z,102097.94
2023-05-09T02:16:06.331Z,102096.75
2023-05-09T02:18:33.659Z,102087.59
2023-05-09T02:21:01.307Z,102093.34
2023-05-09T02:23:28.578Z,102090.47
2023-05-09T02:25:57.594Z,102088.97
2023-05-09T02:28:27.240Z,102099.13
2023-05-09T02:30:58.691Z,102102.22
2023-05-09T02:33:27.117Z,102101.66
2023-05-09T02:35:56.320Z,102102.44
2023-05-09T02:38:24.358Z,102098.00
2023-05-09T02:40:52.718Z,102095.88
2023-05-09T02:43:21.385Z,102090.69
2023-05-09T02:45:50.142Z,102095.03
2023-05-09T02:48:17.338Z,102095.00
2023-05-09T02:50:44.818Z,102092.50
2023-05-09T02:53:12.294Z,102096.06
2023-05-09T02:55:41.882Z,102095.84
2023-05-09T02:58:14.157Z,102094.13
2023-05-09T03:00:43.816Z,102094.88
2023-05-09T03:03:11.256Z,102092.78
2023-05-09T03:05:38.576Z,102090.44
2023-05-09T03:08:05.919Z,102087.63
2023-05-09T03:10:33.106Z,102089.06
2023-05-09T03:13:01.584Z,102088.81
2023-05-09T03:15:28.854Z,102088.50
2023-05-09T03:17:57.466Z,102084.72
2023-05-09T03:20:26.592Z,102084.94
2023-05-09T03:22:53.803Z,102084.94
2023-05-09T03:25:21.250Z,102092.63
2023-05-09T03:27:48.524Z,102087.13
2023-05-09T03:30:15.931Z,102081.41
2023-05-09T03:32:43.337Z,102082.69
2023-05-09T03:35:12.009Z,102076.44
2023-05-09T03:37:39.320Z,102077.84
2023-05-09T03:40:08.019Z,102078.66
2023-05-09T03:42:35.274Z,102075.34
2023-05-09T03:45:02.549Z,102080.13
2023-05-09T03:47:30.052Z,102081.19
2023-05-09T03:49:57.312Z,102088.91
2023-05-09T03:52:26.931Z,102080.88
2023-05-09T03:54:54.184Z,102082.66
2023-05-09T03:57:21.408Z,102092.34
2023-05-09T03:59:48.655Z,102085.03
2023-05-09T04:02:16.029Z,102089.78
2023-05-09T04:04:43.322Z,102088.84
2023-05-09T04:07:12.367Z,102089.56
2023-05-09T04:09:42.005Z,102090.97
2023-05-09T04:12:09.491Z,102086.09
2023-05-09T04:14:36.719Z,102081.84
2023-05-09T04:17:03.997Z,102088.75
2023-05-09T04:19:31.262Z,102081.22
2023-05-09T04:21:58.566Z,102092.97
2023-05-09T04:24:25.806Z,102088.53
2023-05-09T04:26:55.477Z,102083.66
2023-05-09T04:29:22.717Z,102081.41
2023-05-09T04:31:50.357Z,102087.22
2023-05-09T04:34:17.702Z,102083.09
2023-05-09T04:36:45.402Z,102076.06
2023-05-09T04:39:12.658Z,102079.41
2023-05-09T04:41:39.834Z,102073.91
2023-05-09T04:44:08.423Z,102088.56
2023-05-09T04:46:35.656Z,102082.63
2023-05-09T04:49:02.897Z,102081.63
2023-05-09T04:51:30.103Z,102078.44
2023-05-09T04:53:57.370Z,102086.38
2023-05-09T04:56:24.608Z,102079.63
2023-05-09T04:58:51.859Z,102072.72
2023-05-09T05:01:20.483Z,102072.72
2023-05-09T05:03:47.958Z,102074.16
2023-05-09T05:06:16.624Z,102063.50
2023-05-09T05:08:43.877Z,102076.81
2023-05-09T05:11:11.572Z,102067.66
2023-05-09T05:13:40.252Z,102065.16
2023-05-09T05:16:07.537Z,102060.09
2023-05-09T05:18:36.113Z,102057.13
2023-05-09T05:21:03.599Z,102060.81
2023-05-09T05:23:30.911Z,102069.47
2023-05-09T05:25:58.149Z,102064.97
2023-05-09T05:28:26.335Z,102058.81
2023-05-09T05:30:54.586Z,102064.97
2023-05-09T05:33:21.840Z,102059.00
2023-05-09T05:35:50.504Z,102059.13
2023-05-09T05:38:17.699Z,102053.34
2023-05-09T05:40:45.197Z,102046.38
2023-05-09T05:43:12.451Z,102055.75
2023-05-09T05:45:39.915Z,102056.34
2023-05-09T05:48:07.408Z,102051.88
2023-05-09T05:50:34.981Z,102055.63
2023-05-09T05:53:03.575Z,102050.66
2023-05-09T05:55:32.184Z,102038.34
2023-05-09T05:57:59.487Z,102047.81
2023-05-09T06:00:26.706Z,102046.03
2023-05-09T06:02:53.997Z,102043.56
2023-05-09T06:05:21.278Z,102043.69
2023-05-09T06:07:48.501Z,102041.66
2023-05-09T06:10:17.058Z,102032.25
2023-05-09T06:12:44.561Z,102032.50
2023-05-09T06:15:11.926Z,102032.22
2023-05-09T06:17:41.532Z,102026.44
2023-05-09T06:20:10.401Z,102027.72
2023-05-09T06:22:38.089Z,102033.41
2023-05-09T06:25:08.713Z,102028.53
2023-05-09T06:27:38.869Z,102021.69
2023-05-09T06:30:23.934Z,102021.41
2023-05-09T06:32:53.483Z,102019.72
2023-05-09T06:35:20.779Z,102009.09
2023-05-09T06:37:48.787Z,102006.91
2023-05-09T06:40:16.799Z,102001.59
2023-05-09T06:42:45.645Z,101994.59
2023-05-09T06:45:13.029Z,101998.38
2023-05-09T06:47:41.177Z,101996.97
2023-05-09T06:50:08.679Z,101993.84
2023-05-09T06:52:35.814Z,101987.94
2023-05-09T06:55:04.948Z,101990.66
2023-05-09T06:57:32.526Z,101977.44
2023-05-09T07:00:01.453Z,101981.91
2023-05-09T07:02:28.730Z,101981.53
2023-05-09T07:04:56.058Z,101972.13
2023-05-09T07:07:24.775Z,101969.31
2023-05-09T07:09:55.260Z,101964.81
2023-05-09T07:12:28.046Z,101967.31
2023-05-09T07:14:56.297Z,101954.38
2023-05-09T07:17:25.030Z,101942.16
2023-05-09T07:19:52.409Z,101938.19
2023-05-09T07:22:19.640Z,101939.88
2023-05-09T07:24:46.876Z,101930.28
2023-05-09T07:27:14.226Z,101925.03
2023-05-09T07:29:41.611Z,101929.88
2023-05-09T07:32:09.203Z,101920.94
2023-05-09T07:34:38.238Z,101922.56
2023-05-09T07:37:05.547Z,101931.56
2023-05-09T07:39:32.785Z,101923.84
2023-05-09T07:42:01.113Z,101918.78
2023-05-09T07:44:28.436Z,101905.16
2023-05-09T07:46:57.120Z,101895.03
2023-05-09T07:49:24.401Z,101896.84
2023-05-09T07:51:56.219Z,101896.13
2023-05-09T07:54:23.602Z,101896.25
2023-05-09T07:56:51.213Z,101892.09
2023-05-09T07:59:21.392Z,101880.13
2023-05-09T08:01:48.794Z,101875.03
2023-05-09T08:04:16.355Z,101872.97
2023-05-09T08:06:44.584Z,101860.53
2023-05-09T08:09:13.228Z,101870.81
2023-05-09T08:11:40.462Z,101860.28
2023-05-09T08:14:07.663Z,101866.47
2023-05-09T08:16:35.972Z,101857.09
2023-05-09T08:19:03.531Z,101856.22
2023-05-09T08:21:30.723Z,101858.19
2023-05-09T08:23:57.910Z,101846.63
2023-05-09T08:26:26.781Z,101842.25
2023-05-09T08:28:54.001Z,101843.28
2023-05-09T08:31:21.231Z,101841.28
2023-05-09T08:33:48.458Z,101833.63
2023-05-09T08:36:19.028Z,101826.13
2023-05-09T08:38:46.565Z,101830.28
2023-05-09T08:41:13.931Z,101829.72
2023-05-09T08:43:43.346Z,101819.00
2023-05-09T08:46:11.569Z,101815.81
2023-05-09T08:48:39.604Z,101827.91
2023-05-09T08:51:07.712Z,101822.69
2023-05-09T08:53:35.389Z,101821.38
2023-05-09T08:56:04.281Z,101818.31
2023-05-09T08:58:31.631Z,101812.13
2023-05-09T09:01:02.037Z,101818.00
2023-05-09T09:03:30.327Z,101800.19
2023-05-09T09:05:58.836Z,101811.59
2023-05-09T09:08:27.327Z,101808.72
2023-05-09T09:10:55.097Z,101810.13
2023-05-09T09:13:23.257Z,101802.47
2023-05-09T09:15:54.473Z,101810.81
2023-05-09T09:18:29.426Z,101793.84
2023-05-09T09:20:59.473Z,101793.69
2023-05-09T09:23:27.737Z,101791.13
2023-05-09T09:25:59.707Z,101788.00
2023-05-09T09:28:27.644Z,101791.72
2023-05-09T09:30:55.152Z,101783.16
2023-05-09T09:33:27.139Z,101796.69
2023-05-09T09:35:56.244Z,101793.06
2023-05-09T09:38:24.771Z,101795.84
2023-05-09T09:40:56.299Z,101790.41
2023-05-09T09:43:30.260Z,101782.03
2023-05-09T09:46:00.621Z,101789.47
2023-05-09T09:48:31.710Z,101772.34
2023-05-09T09:51:03.968Z,101770.84
2023-05-09T09:53:38.966Z,101782.09
2023-05-09T09:56:06.821Z,101774.31
2023-05-09T09:58:35.811Z,101761.00
2023-05-09T10:01:07.314Z,101754.63
2023-05-09T10:03:40.748Z,101744.41
2023-05-09T10:06:11.847Z,101755.63
2023-05-09T10:08:39.618Z,101749.81
2023-05-09T10:11:07.205Z,101746.06
2023-05-09T10:13:36.680Z,101731.91
2023-05-09T10:16:05.537Z,101745.47
2023-05-09T10:18:33.386Z,101734.75
2023-05-09T10:21:07.930Z,101735.03
2023-05-09T10:23:40.639Z,101728.41
2023-05-09T10:26:16.411Z,101741.91
2023-05-09T10:28:45.668Z,101731.09
2023-05-09T10:31:19.839Z,101729.19
2023-05-09T10:33:48.926Z,101727.38
2023-05-09T10:36:19.710Z,101726.19
2023-05-09T10:38:47.614Z,101721.00
2023-05-09T10:41:17.014Z,101714.28
2023-05-09T10:43:45.868Z,101709.03
2023-05-09T10:46:13.914Z,101708.22
2023-05-09T10:48:43.477Z,101701.00
2023-05-09T10:51:12.396Z,101704.88
2023-05-09T10:53:46.195Z,101702.38
2023-05-09T10:56:23.958Z,101703.22
2023-05-09T10:58:51.203Z,101689.88
2023-05-09T11:01:29.410Z,101687.31
2023-05-09T11:03:58.154Z,101680.25
2023-05-09T11:06:47.170Z,101673.91
2023-05-09T11:09:50.850Z,101668.03
2023-05-09T11:12:20.510Z,101660.31
2023-05-09T11:14:50.646Z,101665.50
2023-05-09T11:17:29.049Z,101655.19
2023-05-09T11:20:02.929Z,101662.88
2023-05-09T11:22:31.340Z,101648.59
2023-05-09T11:25:08.113Z,101645.72
2023-05-09T11:27:42.107Z,101633.78
2023-05-09T11:30:11.671Z,101639.69
2023-05-09T11:32:47.201Z,101636.72
2023-05-09T11:35:16.422Z,101629.94
2023-05-09T11:37:48.686Z,101619.25
2023-05-09T11:40:18.246Z,101621.28
2023-05-09T11:42:47.096Z,101609.53
2023-05-09T11:45:15.639Z,101613.59
2023-05-09T11:47:44.270Z,101610.13
2023-05-09T11:50:13.432Z,101601.31
2023-05-09T11:52:41.192Z,101609.94
2023-05-09T11:55:15.608Z,101598.16
2023-05-09T11:57:45.775Z,101593.09
2023-05-09T12:00:16.032Z,101577.69
2023-05-09T12:02:44.812Z,101587.97
2023-05-09T12:05:14.283Z,101596.88
2023-05-09T12:07:41.883Z,101577.03
2023-05-09T12:10:09.821Z,101565.28
2023-05-09T12:12:45.096Z,101558.34
2023-05-09T12:15:14.098Z,101567.22
2023-05-09T12:17:48.261Z,101558.75
2023-05-09T12:20:17.989Z,101542.47
2023-05-09T12:22:52.517Z,101544.13
2023-05-09T12:25:19.754Z,101533.72
2023-05-09T12:27:49.400Z,101532.75
2023-05-09T12:30:17.826Z,101535.31
2023-05-09T12:32:45.198Z,101543.31
2023-05-09T12:35:12.258Z,101528.13
2023-05-09T12:37:39.501Z,101526.75
2023-05-09T12:40:11.504Z,101523.78
2023-05-09T12:42:40.546Z,101518.44
2023-05-09T12:45:12.350Z,101509.06
2023-05-09T12:47:39.689Z,101507.63
2023-05-09T12:50:10.825Z,101507.84
2023-05-09T12:52:50.134Z,101511.03
2023-05-09T12:55:21.730Z,101517.66
2023-05-09T12:57:59.698Z,101508.84
2023-05-09T13:00:29.034Z,101506.25
2023-05-09T13:02:56.497Z,101490.00
2023-05-09T13:05:23.665Z,101500.50
2023-05-09T13:07:51.926Z,101498.47
2023-05-09T13:10:23.194Z,101495.41
2023-05-09T13:12:51.632Z,101481.41
2023-05-09T13:15:23.234Z,101475.19
2023-05-09T13:17:52.446Z,101474.19
2023-05-09T13:20:19.865Z,101465.59
2023-05-09T13:22:47.205Z,101470.84
2023-05-09T13:25:14.744Z,101463.16
2023-05-09T13:27:42.014Z,101456.13
2023-05-09T13:30:09.786Z,101456.16
2023-05-09T13:32:37.210Z,101445.88
2023-05-09T13:35:08.816Z,101451.63
2023-05-09T13:37:36.077Z,101453.13
2023-05-09T13:40:04.655Z,101444.34
2023-05-09T13:42:33.519Z,101436.25
2023-05-09T13:45:01.133Z,101434.44
2023-05-09T13:47:32.011Z,101430.94
2023-05-09T13:49:59.306Z,101425.06
2023-05-09T13:52:27.893Z,101405.41
2023-05-09T13:54:55.211Z,101403.09
2023-05-09T13:57:22.407Z,101412.81
2023-05-09T13:59:49.659Z,101393.75
2023-05-09T14:02:20.604Z,101391.69
2023-05-09T14:04:47.832Z,101400.66
2023-05-09T14:07:15.332Z,101390.63
2023-05-09T14:09:43.971Z,101378.16
2023-05-09T14:12:12.491Z,101381.03
2023-05-09T14:14:40.699Z,101371.84
2023-05-09T14:17:08.158Z,101376.50
2023-05-09T14:19:35.376Z,101365.25
2023-05-09T14:22:02.565Z,101360.28
2023-05-09T14:24:29.899Z,101364.28
2023-05-09T14:27:00.659Z,101360.00
2023-05-09T14:29:28.111Z,101357.44
2023-05-09T14:31:55.457Z,101351.91
2023-05-09T14:34:22.803Z,101342.22
2023-05-09T14:36:50.092Z,101341.59
2023-05-09T14:39:17.327Z,101321.28
2023-05-09T14:41:44.624Z,101321.47
2023-05-09T14:44:13.189Z,101326.88
2023-05-09T14:46:41.613Z,101325.63
2023-05-09T14:49:09.036Z,101304.25
2023-05-09T14:51:36.246Z,101309.44
2023-05-09T14:54:04.679Z,101312.75
2023-05-09T14:56:32.373Z,101315.25
2023-05-09T14:58:59.387Z,101311.47
2023-05-09T15:01:29.177Z,101306.50
2023-05-09T15:03:56.412Z,101309.41
2023-05-09T15:06:23.675Z,101302.38
2023-05-09T15:08:53.798Z,101300.72
2023-05-09T15:11:22.551Z,101295.75
2023-05-09T15:13:53.279Z,101297.34
2023-05-09T15:16:20.888Z,101288.66
2023-05-09T15:18:50.645Z,101283.47
2023-05-09T15:21:17.838Z,101275.59
2023-05-09T15:23:45.018Z,101276.97
2023-05-09T15:26:12.486Z,101266.16
2023-05-09T15:28:41.109Z,101270.13
2023-05-09T15:31:08.392Z,101263.69
2023-05-09T15:33:35.715Z,101262.03
2023-05-09T15:36:06.515Z,101255.66
2023-05-09T15:38:34.489Z,101254.22
2023-05-09T15:41:01.701Z,101254.16
2023-05-09T15:43:30.222Z,101254.22
2023-05-09T15:45:57.449Z,101252.28
2023-05-09T15:48:24.824Z,101244.16
2023-05-09T15:50:53.011Z,101238.88
2023-05-09T15:53:21.586Z,101243.41
2023-05-09T15:55:48.795Z,101243.28
2023-05-09T15:58:16.057Z,101232.25
2023-05-09T16:00:43.279Z,101233.75
2023-05-09T16:03:10.610Z,101249.31
2023-05-09T16:05:37.960Z,101238.69
2023-05-09T16:08:05.305Z,101239.41
2023-05-09T16:10:34.157Z,101236.34
2023-05-09T16:13:01.466Z,101233.63
2023-05-09T16:15:28.763Z,101225.56
2023-05-09T16:17:56.006Z,101222.25
2023-05-09T16:20:23.596Z,101221.22
2023-05-09T16:22:50.696Z,101221.47
2023-05-09T16:27:40.592Z,101219.28
2023-05-09T16:30:10.462Z,101219.31
2023-05-09T16:32:37.693Z,101216.09
2023-05-09T16:35:06.180Z,101205.25
2023-05-09T16:37:35.406Z,101211.47
2023-05-09T16:40:03.278Z,101216.00
2023-05-09T16:42:30.598Z,101200.97
2023-05-09T16:45:00.544Z,101206.41
2023-05-09T16:47:27.809Z,101204.78
2023-05-09T16:49:55.023Z,101206.41
2023-05-09T16:52:22.249Z,101192.28
2023-05-09T16:54:49.715Z,101200.38
2023-05-09T16:57:16.972Z,101198.31
2023-05-09T16:59:44.169Z,101194.47
2023-05-09T17:02:12.791Z,101189.41
2023-05-09T17:04:40.155Z,101185.31
2023-05-09T17:07:07.403Z,101195.59
2023-05-09T17:09:34.592Z,101185.41
2023-05-09T17:12:02.066Z,101181.81
2023-05-09T17:14:29.286Z,101188.63
2023-05-09T17:16:56.586Z,101175.47
2023-05-09T17:19:25.290Z,101180.94
2023-05-09T17:21:52.731Z,101181.38
2023-05-09T17:24:22.981Z,101174.31
2023-05-09T17:26:50.240Z,101176.38
2023-05-09T17:29:17.788Z,101172.78
2023-05-09T17:31:45.265Z,101167.91
2023-05-09T17:34:12.492Z,101167.03
2023-05-09T17:36:42.158Z,101166.91
2023-05-09T17:39:09.346Z,101165.44
2023-05-09T17:41:38.160Z,101172.81
2023-05-09T17:44:05.765Z,101171.91
2023-05-09T17:46:33.124Z,101164.25
2023-05-09T17:49:00.456Z,101169.88
2023-05-09T17:51:27.933Z,101167.44
2023-05-09T17:53:56.525Z,101162.69
2023-05-09T17:56:24.074Z,101158.88
2023-05-09T17:58:51.238Z,101159.28
2023-05-09T18:01:18.887Z,101156.41
2023-05-09T18:03:46.683Z,101165.22
2023-05-09T18:06:14.042Z,101153.66
2023-05-09T18:08:41.336Z,101162.47
2023-05-09T18:11:12.101Z,101151.84
2023-05-09T18:13:39.306Z,101155.00
2023-05-09T18:16:08.680Z,101150.56
2023-05-09T18:18:36.213Z,101147.72
2023-05-09T18:21:04.809Z,101145.78
2023-05-09T18:23:33.330Z,101146.25
2023-05-09T18:26:00.636Z,101142.63
2023-05-09T18:28:29.365Z,101143.91
2023-05-09T18:30:59.102Z,101147.25
2023-05-09T18:33:29.010Z,101147.72
2023-05-09T18:35:56.270Z,101152.44
2023-05-09T18:38:23.478Z,101150.50
2023-05-09T18:40:50.737Z,101145.03
2023-05-09T18:43:17.970Z,101151.88
2023-05-09T18:45:46.630Z,101148.66
2023-05-09T18:48:15.335Z,101148.09
2023-05-09T18:50:42.621Z,101147.63
2023-05-09T18:53:09.861Z,101142.09
2023-05-09T18:55:37.174Z,101145.97
2023-05-09T18:58:04.732Z,101144.13
2023-05-09T19:00:31.949Z,101144.94
2023-05-09T19:03:00.634Z,101147.63
2023-05-09T19:05:27.916Z,101148.28
2023-05-09T19:07:55.139Z,101151.38
2023-05-09T19:10:22.379Z,101142.75
2023-05-09T19:12:49.719Z,101151.53
2023-05-09T19:15:17.035Z,101144.69
2023-05-09T19:17:44.357Z,101142.31
2023-05-09T19:20:13.645Z,101132.78
2023-05-09T19:22:41.182Z,101148.00
2023-05-09T19:25:09.686Z,101140.63
2023-05-09T19:27:36.946Z,101138.47
2023-05-09T19:30:05.159Z,101140.13
2023-05-09T19:32:32.411Z,101141.03
2023-05-09T19:35:00.131Z,101136.28
2023-05-09T19:37:29.091Z,101119.47
2023-05-09T19:39:57.738Z,101123.66
2023-05-09T19:42:24.996Z,101129.31
2023-05-09T19:44:53.757Z,101128.91
2023-05-09T19:47:20.966Z,101120.22
2023-05-09T19:49:48.434Z,101122.09
2023-05-09T19:52:15.646Z,101128.50
2023-05-09T19:54:44.283Z,101121.63
2023-05-09T19:57:11.567Z,101124.81
2023-05-09T19:59:40.255Z,101120.53
2023-05-09T20:02:07.696Z,101120.88
2023-05-09T20:04:38.732Z,101115.19
2023-05-09T20:07:06.169Z,101117.81
2023-05-09T20:09:33.374Z,101113.38
2023-05-09T20:12:02.731Z,101110.72
2023-05-09T20:14:29.908Z,101117.75
2023-05-09T20:16:57.502Z,101106.03
2023-05-09T20:19:24.873Z,101111.81
2023-05-09T20:21:52.141Z,101101.56
2023-05-09T20:24:19.557Z,101120.22
2023-05-09T20:26:46.732Z,101103.25
2023-05-09T20:29:15.385Z,101107.84
2023-05-09T20:31:43.308Z,101104.03
2023-05-09T20:34:10.370Z,101097.34
2023-05-09T20:36:37.515Z,101089.88
2023-05-09T20:39:05.011Z,101097.31
2023-05-09T20:41:32.222Z,101089.16
2023-05-09T20:43:59.422Z,101090.25
2023-05-09T20:46:28.096Z,101089.25
2023-05-09T20:48:55.438Z,101084.53
2023-05-09T20:51:22.697Z,101081.97
2023-05-09T20:53:50.955Z,101076.03
2023-05-09T20:56:18.193Z,101081.25
2023-05-09T20:58:45.642Z,101070.59
2023-05-09T21:01:12.924Z,101076.31
2023-05-09T21:03:41.602Z,101073.78
2023-05-09T21:06:10.152Z,101071.97
2023-05-09T21:08:37.738Z,101073.53
2023-05-09T21:11:04.986Z,101064.97
2023-05-09T21:13:32.416Z,101066.16
2023-05-09T21:15:59.646Z,101056.97
2023-05-09T21:18:26.845Z,101061.69
2023-05-09T21:20:55.474Z,101051.44
2023-05-09T21:23:24.182Z,101050.34
2023-05-09T21:25:51.412Z,101054.31
2023-05-09T21:28:18.641Z,101053.81
2023-05-09T21:30:50.670Z,101053.31
2023-05-09T21:33:18.011Z,101049.13
2023-05-09T21:35:45.394Z,101045.63
2023-05-09T21:38:14.299Z,101049.97
2023-05-09T21:40:41.757Z,101046.72
2023-05-09T21:43:09.102Z,101041.38
2023-05-09T21:45:36.632Z,101038.38
2023-05-09T21:48:04.396Z,101043.34
2023-05-09T21:50:31.716Z,101037.38
2023-05-09T21:52:59.100Z,101033.72
2023-05-09T21:55:27.790Z,101033.53
2023-05-09T21:57:55.069Z,101031.72
2023-05-09T22:00:22.423Z,101032.22
2023-05-09T22:02:54.639Z,101035.38
2023-05-09T22:05:22.966Z,101033.03
2023-05-09T22:07:50.504Z,101033.03
2023-05-09T22:10:19.835Z,101032.03
2023-05-09T22:12:48.569Z,101033.72
2023-05-09T22:15:15.953Z,101027.03
2023-05-09T22:17:43.300Z,101026.88
2023-05-09T22:20:11.991Z,101028.34
2023-05-09T22:22:39.210Z,101029.34
2023-05-09T22:25:10.064Z,101026.03
2023-05-09T22:27:37.571Z,101023.03
2023-05-09T22:30:08.119Z,101035.34
2023-05-09T22:32:35.353Z,101028.03
2023-05-09T22:35:02.883Z,101032.69
2023-05-09T22:37:30.554Z,101019.19
2023-05-09T22:39:57.755Z,101031.50
2023-05-09T22:42:28.336Z,101033.34
2023-05-09T22:44:56.352Z,101032.84
2023-05-09T22:47:25.090Z,101027.00
2023-05-09T22:49:52.575Z,101029.28
2023-05-09T22:52:20.935Z,101025.56
2023-05-09T22:54:48.099Z,101023.22
2023-05-09T22:57:15.479Z,101017.34
2023-05-09T22:59:42.994Z,101016.06
2023-05-09T23:02:10.370Z,101014.84
2023-05-09T23:04:47.726Z,101015.44
2023-05-09T23:07:15.268Z,101005.63
2023-05-09T23:09:42.563Z,101004.50
2023-05-09T23:12:09.784Z,101007.19
2023-05-09T23:14:38.288Z,101007.81
2023-05-09T23:17:05.532Z,101006.50
2023-05-09T23:19:32.848Z,101004.19
2023-05-09T23:22:01.466Z,101002.16
2023-05-09T23:24:28.763Z,101003.50
2023-05-09T23:26:55.971Z,101001.13
2023-05-09T23:29:23.608Z,101000.22
2023-05-09T23:31:51.049Z,100996.16
2023-05-09T23:34:18.582Z,101000.69
2023-05-09T23:36:45.767Z,100994.06
2023-05-09T23:39:15.754Z,100992.03
2023-05-09T23:41:43.038Z,100998.34
2023-05-09T23:44:10.986Z,100995.00
2023-05-09T23:46:38.147Z,100996.88
2023-05-09T23:49:05.322Z,100994.03
2023-05-09T23:51:32.589Z,100984.28
2023-05-09T23:53:59.839Z,100990.47
2023-05-09T23:56:28.471Z,100980.34
2023-05-09T23:58:55.740Z,100987.41
